Time;durP1;ratioP1;P1;durP2;ratioP2;P2;SDS_P1;SDS_P2;PMS_P1;PMS_P2;Temp;Humidity;BMP_temperature;BMP_pressure;BME280_temperature;BME280_humidity;BME280_pressure;Samples;Min_cycle;Max_cycle;Signal;HPM_P1;HPM_P2
2023/04/28 00:02:02;;;;;;;8.57;4.15;;;11.80;99.90;;;10.85;100.00;97424.81;4997122;28;20070;-78
2023/04/28 00:04:30;;;;;;;10.75;4.72;;;;;;;10.89;100.00;97422.94;4988807;28;20046;-78
2023/04/28 00:06:57;;;;;;;8.07;4.93;;;11.70;99.90;;;10.83;100.00;97428.41;4987910;28;20051;-78
2023/04/28 00:09:25;;;;;;;9.45;5.18;;;11.60;99.90;;;10.76;100.00;97432.19;4987667;28;20046;-78
2023/04/28 00:11:51;;;;;;;8.32;4.00;;;11.60;99.90;;;10.72;100.00;97438.44;4991286;28;20525;-77
2023/04/28 00:14:19;;;;;;;7.57;4.68;;;11.40;99.90;;;10.50;100.00;97443.75;4973720;28;20056;-77
2023/04/28 00:16:46;;;;;;;8.23;4.35;;;11.20;99.90;;;10.29;100.00;97443.78;4976239;28;20503;-78
2023/04/28 00:19:13;;;;;;;6.88;3.80;;;11.20;99.90;;;10.53;100.00;97441.00;4988795;28;20373;-77
2023/04/28 00:21:42;;;;;;;9.63;4.70;;;11.20;99.90;;;10.43;100.00;97438.00;4989278;28;20046;-77
2023/04/28 00:24:09;;;;;;;9.55;5.10;;;11.20;99.90;;;10.36;100.00;97437.41;4987282;28;20050;-78
2023/04/28 00:26:36;;;;;;;8.48;4.32;;;11.20;99.90;;;10.42;100.00;97425.91;4987245;28;20348;-78
2023/04/28 00:29:03;;;;;;;7.07;3.38;;;11.20;99.90;;;10.57;100.00;97419.22;4989040;28;20125;-78
2023/04/28 00:31:31;;;;;;;5.75;3.88;;;11.30;99.90;;;10.57;100.00;97419.22;4993071;28;20056;-77
2023/04/28 00:33:58;;;;;;;9.98;3.78;;;11.40;99.90;;;10.60;100.00;97421.66;4993474;28;20077;-78
2023/04/28 00:36:29;;;;;;;7.65;4.40;;;11.40;99.90;;;10.60;100.00;97430.28;4990697;28;20042;-78
2023/04/28 00:38:57;;;;;;;8.35;4.60;;;11.40;99.90;;;10.66;100.00;97422.22;5000390;28;20089;-78
2023/04/28 00:41:25;;;;;;;7.45;4.25;;;11.50;99.90;;;10.75;100.00;97427.91;4991826;28;20503;-78
2023/04/28 00:43:52;;;;;;;6.72;3.67;;;11.50;99.90;;;10.72;100.00;97408.13;4990782;28;20050;-78
2023/04/28 00:46:28;;;;;;;5.50;3.60;;;11.50;99.90;;;10.64;100.00;97426.63;4972835;28;20054;-78
2023/04/28 00:48:58;;;;;;;6.68;4.72;;;11.50;99.90;;;10.59;100.00;97432.97;4961721;28;20216;-78
2023/04/28 00:51:27;;;;;;;7.78;4.32;;;11.50;99.90;;;10.76;100.00;97427.00;4985855;28;20173;-78
2023/04/28 00:53:56;;;;;;;6.30;4.10;;;11.50;99.90;;;10.89;100.00;97435.91;4983395;28;20078;-78
2023/04/28 00:56:23;;;;;;;7.47;4.13;;;11.60;99.90;;;10.71;100.00;97423.78;4990631;28;20137;-78
2023/04/28 00:58:50;;;;;;;5.43;3.38;;;11.60;99.90;;;10.75;100.00;97427.91;4994741;28;20042;-78
2023/04/28 01:01:18;;;;;;;5.38;3.22;;;11.60;99.90;;;10.83;100.00;97424.06;4992478;28;20135;-78
2023/04/28 01:03:48;;;;;;;4.65;3.25;;;11.60;99.90;;;10.87;100.00;97424.75;4996971;28;20228;-77
2023/04/28 01:06:16;;;;;;;9.00;3.38;;;11.70;99.90;;;10.90;100.00;97434.97;4990141;28;20054;-78
2023/04/28 01:08:49;;;;;;;8.35;4.35;;;11.70;99.90;;;10.81;100.00;97427.63;4991301;28;20129;-78
2023/04/28 01:11:16;;;;;;;8.00;3.97;;;11.70;99.90;;;10.88;100.00;97416.91;4984653;28;20102;-77
2023/04/28 01:13:43;;;;;;;6.57;3.78;;;11.60;99.90;;;10.70;100.00;97435.06;4998066;28;20049;-78
2023/04/28 01:16:11;;;;;;;8.85;4.90;;;11.50;99.90;;;10.44;100.00;97435.31;4972262;28;20057;-77
2023/04/28 01:18:46;;;;;;;8.48;5.10;;;11.30;99.90;;;10.25;100.00;97445.63;4979297;28;20135;-78
2023/04/28 01:21:13;;;;;;;10.23;5.10;;;11.20;99.90;;;10.31;100.00;97454.09;4993948;28;20120;-77
2023/04/28 01:23:45;;;;;;;7.68;4.47;;;11.10;99.90;;;10.23;100.00;97460.41;4990383;28;20081;-78
2023/04/28 01:26:12;;;;;;;9.70;5.90;;;10.90;99.90;;;10.08;100.00;97461.09;4999061;28;20058;-77
2023/04/28 01:28:39;;;;;;;9.45;5.53;;;10.80;99.90;;;10.01;100.00;97465.69;4991247;28;20079;-77
2023/04/28 01:31:06;;;;;;;8.77;6.10;;;10.80;99.90;;;9.92;100.00;97467.81;4991227;28;20050;-77
2023/04/28 01:33:35;;;;;;;8.18;5.40;;;10.80;99.90;;;9.93;100.00;97472.94;4975829;28;20072;-78
2023/04/28 01:36:02;;;;;;;11.10;6.47;;;10.80;99.90;;;9.77;100.00;97472.72;4998928;28;20042;-78
2023/04/28 01:38:29;;;;;;;8.23;5.47;;;10.70;99.90;;;9.90;100.00;97469.63;4992692;28;20949;-77
2023/04/28 01:40:57;;;;;;;6.75;4.80;;;10.70;99.90;;;9.95;100.00;97465.94;4975697;28;20039;-77
2023/04/28 01:43:24;;;;;;;7.45;4.43;;;10.80;99.90;;;10.01;100.00;97475.19;4993991;28;20072;-77
2023/04/28 01:45:52;;;;;;;9.93;5.15;;;10.80;99.90;;;9.96;100.00;97467.63;4990298;28;20955;-78
2023/04/28 01:48:19;;;;;;;7.38;5.45;;;10.70;99.90;;;9.90;100.00;97472.22;4990290;28;20052;-77
2023/04/28 01:50:46;;;;;;;8.23;5.38;;;10.60;99.90;;;9.80;100.00;97476.94;4975865;28;20054;-77
2023/04/28 01:53:14;;;;;;;10.25;6.43;;;10.50;99.90;;;9.60;100.00;97475.16;4995701;28;20065;-78
2023/04/28 01:55:41;;;;;;;10.20;6.57;;;10.50;99.90;;;9.69;100.00;97468.75;4996024;28;20051;-77
2023/04/28 01:58:08;;;;;;;9.77;6.25;;;10.40;99.90;;;9.60;100.00;97476.00;4992551;28;20051;-77
2023/04/28 02:00:36;;;;;;;10.63;6.75;;;10.40;99.90;;;9.70;100.00;97478.22;4994157;28;20038;-78
2023/04/28 02:03:03;;;;;;;9.85;6.55;;;10.40;99.90;;;9.78;100.00;97486.53;4983543;28;20054;-77
2023/04/28 02:05:31;;;;;;;9.55;5.57;;;10.50;99.90;;;9.90;100.00;97496.41;4976839;28;20066;-78
2023/04/28 02:07:57;;;;;;;9.65;5.22;;;10.70;99.90;;;9.96;100.00;97497.88;5001200;28;20047;-77
2023/04/28 02:10:25;;;;;;;6.45;4.75;;;10.70;99.90;;;9.94;100.00;97503.13;4987500;28;20120;-77
2023/04/28 02:12:52;;;;;;;9.68;6.05;;;10.60;99.90;;;9.90;100.00;97503.31;4976314;28;20073;-77
2023/04/28 02:15:19;;;;;;;8.45;5.35;;;10.60;99.90;;;9.94;100.00;97508.31;4994822;28;20053;-77
2023/04/28 02:17:46;;;;;;;9.45;5.75;;;10.70;99.90;;;10.04;100.00;97503.63;4975491;28;20050;-77
2023/04/28 02:20:13;;;;;;;6.15;4.10;;;10.70;99.90;;;10.10;100.00;97494.72;4993524;28;20074;-77
2023/04/28 02:22:40;;;;;;;7.63;4.20;;;10.80;99.90;;;10.16;100.00;97495.31;4975340;28;21035;-77
2023/04/28 02:25:08;;;;;;;7.43;5.00;;;10.90;99.90;;;10.15;100.00;97485.00;4991584;28;20046;-77
2023/04/28 02:27:36;;;;;;;6.22;4.70;;;11.00;99.90;;;10.12;100.00;97483.38;4990038;28;20081;-77
2023/04/28 02:30:05;;;;;;;6.93;3.97;;;11.00;99.90;;;10.08;100.00;97488.75;4977563;28;20054;-77
2023/04/28 02:32:32;;;;;;;6.90;4.93;;;11.00;99.90;;;10.13;100.00;97490.25;4994885;28;20154;-77
2023/04/28 02:34:59;;;;;;;8.38;3.80;;;11.00;99.90;;;10.23;100.00;97483.75;4988245;28;20061;-77
2023/04/28 02:37:26;;;;;;;6.95;4.50;;;11.00;99.90;;;10.29;100.00;97484.47;4996107;28;20074;-78
2023/04/28 02:39:53;;;;;;;9.77;4.95;;;10.90;99.90;;;10.30;100.00;97484.38;4988931;28;20053;-77
2023/04/28 02:42:20;;;;;;;9.60;5.47;;;10.90;99.90;;;9.91;100.00;97485.13;4995816;28;20050;-77
2023/04/28 02:44:47;;;;;;;8.38;5.45;;;10.70;99.90;;;9.89;100.00;97483.50;4993086;28;20081;-77
2023/04/28 02:47:14;;;;;;;7.55;4.50;;;10.60;99.90;;;9.94;100.00;97484.16;4993349;28;20073;-77
2023/04/28 02:49:41;;;;;;;7.25;4.35;;;10.60;99.90;;;10.01;100.00;97475.19;4994851;28;20049;-78
2023/04/28 02:52:08;;;;;;;8.15;4.85;;;10.60;99.90;;;10.00;100.00;97469.19;4992294;28;20068;-77
2023/04/28 02:54:36;;;;;;;7.20;3.65;;;10.70;99.90;;;10.05;100.00;97462.03;4989077;28;20046;-77
2023/04/28 02:57:03;;;;;;;6.47;4.13;;;10.70;99.90;;;10.07;100.00;97456.78;4991272;28;20050;-77
2023/04/28 02:59:31;;;;;;;6.25;4.35;;;10.80;99.90;;;10.00;100.00;97450.19;5000465;28;20499;-77
2023/04/28 03:01:58;;;;;;;8.50;4.68;;;10.80;99.90;;;10.02;100.00;97450.97;4991497;28;20129;-77
2023/04/28 03:04:25;;;;;;;9.52;5.38;;;10.80;99.90;;;10.04;100.00;97454.34;4991841;28;20046;-77
2023/04/28 03:06:53;;;;;;;9.63;5.65;;;10.80;99.90;;;10.02;100.00;97449.22;4966943;28;20557;-77
2023/04/28 03:09:20;;;;;;;7.82;5.53;;;10.70;99.90;;;10.15;100.00;97456.47;4971980;28;20060;-77
2023/04/28 03:11:48;;;;;;;9.20;5.60;;;10.70;99.90;;;10.15;100.00;97456.47;4982664;28;20054;-77
2023/04/28 03:14:15;;;;;;;9.43;5.57;;;10.70;99.90;;;10.13;100.00;97461.72;4990112;28;20061;-77
2023/04/28 03:16:43;;;;;;;7.68;4.95;;;10.80;99.90;;;10.17;100.00;97463.28;4995746;28;20104;-77
2023/04/28 03:19:10;;;;;;;9.15;6.05;;;10.80;99.90;;;10.18;100.00;97451.16;4986869;28;20165;-77
2023/04/28 03:21:37;;;;;;;7.75;5.55;;;10.80;99.90;;;10.17;100.00;97450.31;4989538;28;20168;-77
2023/04/28 03:24:04;;;;;;;9.93;5.97;;;10.80;99.90;;;10.13;100.00;97453.94;4970207;28;20417;-77
2023/04/28 03:26:31;;;;;;;13.00;7.72;;;10.80;99.90;;;9.99;100.00;97454.53;4983007;28;20522;-77
2023/04/28 03:28:59;;;;;;;10.48;7.35;;;10.60;99.90;;;10.01;100.00;97446.69;4971805;28;20053;-77
2023/04/28 03:31:28;;;;;;;13.40;6.60;;;10.60;99.90;;;9.97;100.00;97451.16;4989965;28;20101;-77
2023/04/28 03:33:58;;;;;;;9.35;6.47;;;10.60;99.90;;;10.01;100.00;97449.25;4975699;28;20046;-77
2023/04/28 03:36:26;;;;;;;8.45;5.93;;;10.60;99.90;;;10.01;100.00;97444.94;4978057;28;20053;-77
2023/04/28 03:38:53;;;;;;;12.32;7.20;;;10.60;99.90;;;9.92;100.00;97441.88;4990229;28;20050;-76
2023/04/28 03:41:20;;;;;;;7.35;6.13;;;10.60;99.90;;;9.90;100.00;97441.09;4988087;28;20509;-77
2023/04/28 03:43:47;;;;;;;10.35;7.40;;;10.60;99.90;;;9.95;100.00;97436.59;4991305;28;20046;-76
2023/04/28 03:46:14;;;;;;;9.50;6.00;;;10.70;99.90;;;9.97;100.00;97424.41;4986236;28;20142;-77
2023/04/28 03:48:41;;;;;;;9.30;5.93;;;10.70;99.90;;;9.95;100.00;97421.03;4988527;28;20597;-76
2023/04/28 03:51:08;;;;;;;9.10;6.20;;;10.70;99.90;;;9.93;100.00;97421.09;4966290;28;20061;-77
2023/04/28 03:53:35;;;;;;;8.90;6.18;;;10.70;99.90;;;9.88;100.00;97410.06;5004862;28;20046;-77
2023/04/28 03:56:02;;;;;;;9.80;6.22;;;10.70;99.90;;;9.93;100.00;97421.09;4990361;28;20058;-76
2023/04/28 03:58:31;;;;;;;13.75;7.32;;;10.70;99.90;;;9.84;100.00;97406.75;4981489;28;20094;-77
2023/04/28 04:00:59;;;;;;;8.70;6.35;;;10.60;99.90;;;9.91;100.00;97399.56;4988485;28;20125;-77
2023/04/28 04:03:27;;;;;;;8.73;6.47;;;10.60;99.90;;;9.98;100.00;97410.50;4971446;28;20038;-77
2023/04/28 04:05:54;;;;;;;7.40;5.95;;;10.60;99.90;;;9.98;100.00;97398.38;4986326;28;20788;-76
2023/04/28 04:08:22;;;;;;;7.30;6.50;;;10.70;99.90;;;10.02;100.00;97394.75;4993105;28;20056;-76
2023/04/28 04:10:53;;;;;;;11.38;6.88;;;10.70;99.90;;;10.01;100.00;97394.81;4989940;28;20129;-77
2023/04/28 04:13:21;;;;;;;11.13;7.20;;;10.80;99.90;;;9.96;100.00;97407.13;4991838;28;20051;-77
2023/04/28 04:15:49;;;;;;;10.07;7.55;;;10.80;99.90;;;10.00;100.00;97396.56;4991348;28;20053;-77
2023/04/28 04:18:16;;;;;;;9.20;6.45;;;10.80;99.90;;;10.00;100.00;97400.91;4987441;28;20082;-77
2023/04/28 04:20:44;;;;;;;11.82;7.82;;;10.80;99.90;;;9.96;100.00;97387.22;4994201;28;20494;-77
2023/04/28 04:23:11;;;;;;;10.90;6.15;;;10.80;99.90;;;10.05;100.00;97386.84;4997021;28;20104;-77
2023/04/28 04:25:38;;;;;;;10.45;6.40;;;10.90;99.90;;;10.21;100.00;97379.22;4992158;28;20438;-77
2023/04/28 04:28:05;;;;;;;10.73;6.53;;;10.90;99.90;;;10.17;100.00;97369.91;4976406;28;20162;-77
2023/04/28 04:30:32;;;;;;;9.40;6.63;;;10.90;99.90;;;10.14;100.00;97376.97;4993023;28;20101;-77
2023/04/28 04:32:59;;;;;;;10.45;6.38;;;10.90;99.90;;;10.13;100.00;97381.34;4983029;28;20126;-77
2023/04/28 04:35:26;;;;;;;12.73;7.15;;;10.90;99.90;;;10.08;100.00;97380.69;4986405;28;20045;-77
2023/04/28 04:37:54;;;;;;;13.50;7.75;;;10.90;99.90;;;10.11;100.00;97380.56;4992150;28;20121;-78
2023/04/28 04:40:21;;;;;;;10.43;6.78;;;10.90;99.90;;;10.13;100.00;97383.94;4991955;28;20057;-77
2023/04/28 04:42:48;;;;;;;12.82;7.03;;;10.90;99.90;;;10.17;100.00;97385.47;4993030;28;20065;-77
2023/04/28 04:45:15;;;;;;;15.88;7.95;;;10.80;99.90;;;10.11;100.00;97384.91;4986217;28;20061;-77
2023/04/28 04:47:43;;;;;;;13.40;8.48;;;10.80;99.90;;;10.12;100.00;97384.81;4971927;28;20046;-77
2023/04/28 04:50:11;;;;;;;12.55;7.57;;;10.80;99.90;;;10.11;100.00;97377.97;4987695;28;20072;-76
2023/04/28 04:52:38;;;;;;;10.95;7.82;;;10.80;99.90;;;10.14;100.00;97371.78;4969941;28;20848;-77
2023/04/28 04:55:06;;;;;;;14.10;8.05;;;10.80;99.90;;;10.10;100.00;97376.25;4992453;28;20137;-76
2023/04/28 04:57:33;;;;;;;13.48;8.32;;;10.80;99.90;;;10.15;100.00;97369.13;4990198;28;20050;-77
2023/04/28 05:00:00;;;;;;;10.55;8.40;;;10.80;99.90;;;10.19;100.00;97367.25;4974365;28;20154;-77
2023/04/28 05:02:27;;;;;;;11.48;7.43;;;10.90;99.90;;;10.19;100.00;97369.84;4983182;28;20057;-78
2023/04/28 05:04:54;;;;;;;11.88;7.32;;;10.90;99.90;;;10.25;100.00;97356.59;4982905;28;20100;-77
2023/04/28 05:07:34;;;;;;;9.80;7.20;;;10.90;99.90;;;10.25;100.00;97354.00;4991172;28;20058;-77
2023/04/28 05:10:02;;;;;;;13.48;7.82;;;10.90;99.90;;;10.33;100.00;97364.06;4989661;28;20058;-77
2023/04/28 05:12:30;;;;;;;9.55;7.70;;;10.90;99.90;;;10.30;100.00;97361.59;4973757;28;20082;-76
2023/04/28 05:14:57;;;;;;;9.43;7.53;;;10.90;99.90;;;10.33;100.00;97361.47;4989127;28;20465;-76
2023/04/28 05:17:27;;;;;;;9.43;7.53;;;11.00;99.90;;;10.34;100.00;97363.16;4984026;28;20160;-77
2023/04/28 05:19:55;;;;;;;9.45;7.22;;;11.00;99.90;;;10.33;100.00;97351.09;4982848;28;20081;-77
2023/04/28 05:22:22;;;;;;;10.63;7.95;;;11.00;99.90;;;10.34;100.00;97355.38;4991712;28;20123;-77
2023/04/28 05:24:51;;;;;;;9.93;7.75;;;11.00;99.90;;;10.40;100.00;97355.94;4975271;28;20047;-78
2023/04/28 05:27:18;;;;;;;11.85;8.40;;;11.00;99.90;;;10.40;100.00;97350.75;4988281;28;20108;-77
2023/04/28 05:29:45;;;;;;;9.32;6.80;;;11.00;99.90;;;10.46;100.00;97352.22;4969369;28;20136;-77
2023/04/28 05:32:12;;;;;;;10.70;7.90;;;11.00;99.90;;;10.46;100.00;97357.41;4978744;28;20058;-77
2023/04/28 05:34:40;;;;;;;12.13;8.32;;;;;;;10.44;100.00;97354.88;4972717;28;20203;-77
2023/04/28 05:37:25;;;;;;;11.75;9.07;;;11.10;99.90;;;10.46;100.00;97332.28;4991939;28;20172;-78
2023/04/28 05:39:52;;;;;;;15.68;9.60;;;11.10;99.90;;;10.47;100.00;97330.56;4979708;28;20404;-77
2023/04/28 05:42:19;;;;;;;10.40;8.45;;;11.10;99.90;;;10.48;100.00;97334.81;4999483;28;20047;-76
2023/04/28 05:44:46;;;;;;;11.90;9.15;;;11.10;99.90;;;10.51;100.00;97332.06;4991883;28;20050;-77
2023/04/28 05:47:13;;;;;;;10.85;8.05;;;11.10;99.90;;;10.54;100.00;97321.56;4994774;28;20110;-76
2023/04/28 05:49:40;;;;;;;10.77;6.13;;;11.10;99.90;;;10.61;100.00;97324.72;4989676;28;20066;-77
2023/04/28 05:52:07;;;;;;;5.97;5.07;;;11.10;99.90;;;10.58;100.00;97315.34;4978920;28;20049;-77
2023/04/28 05:54:34;;;;;;;10.15;5.55;;;11.10;99.90;;;10.63;100.00;97321.16;4991307;28;20137;-77
2023/04/28 05:57:02;;;;;;;7.55;3.90;;;11.10;99.90;;;10.66;100.00;97318.41;4998567;28;20434;-77
2023/04/28 05:59:30;;;;;;;7.55;5.53;;;11.20;99.90;;;10.62;100.00;97322.03;4992533;28;20052;-77
2023/04/28 06:01:57;;;;;;;4.85;4.35;;;11.20;99.90;;;10.66;100.00;97331.38;4988993;28;20048;-77
2023/04/28 06:04:25;;;;;;;7.47;5.05;;;11.20;99.90;;;10.67;100.00;97321.81;4982721;28;20050;-76
2023/04/28 06:06:52;;;;;;;4.00;2.80;;;11.20;99.90;;;10.77;100.00;97330.03;4990174;28;20105;-76
2023/04/28 06:09:19;;;;;;;3.53;2.85;;;11.20;99.90;;;10.75;100.00;97334.47;4995316;28;20130;-76
2023/04/28 06:11:46;;;;;;;4.97;3.38;;;11.30;99.90;;;10.79;100.00;97334.25;5001965;28;20056;-77
2023/04/28 06:14:13;;;;;;;3.60;2.63;;;11.30;99.90;;;10.88;100.00;97356.34;4988265;28;20138;-76
2023/04/28 06:16:40;;;;;;;5.07;4.10;;;11.30;99.90;;;10.83;100.00;97348.78;4972451;28;20802;-76
2023/04/28 06:19:08;;;;;;;3.83;2.97;;;11.30;99.90;;;10.92;100.00;97363.06;4983018;28;20055;-76
2023/04/28 06:21:35;;;;;;;4.55;3.00;;;11.30;99.90;;;11.02;100.00;97374.69;4984752;28;20737;-76
2023/04/28 06:24:03;;;;;;;6.40;3.05;;;11.30;99.90;;;10.99;100.00;97361.00;4994297;28;20538;-77
2023/04/28 06:26:30;;;;;;;2.33;1.75;;;11.30;99.90;;;11.09;100.00;97370.88;4987756;28;20394;-76
2023/04/28 06:28:57;;;;;;;2.30;1.50;;;11.40;99.90;;;11.09;100.00;97373.50;4991037;28;20407;-76
2023/04/28 06:31:24;;;;;;;1.70;1.10;;;11.30;99.90;;;11.09;100.00;97373.50;4986760;28;20553;-76
2023/04/28 06:33:52;;;;;;;2.30;1.35;;;11.40;99.90;;;11.09;100.00;97376.09;4994660;28;20056;-76
2023/04/28 06:36:19;;;;;;;8.38;6.60;;;11.40;99.90;;;11.02;100.00;97379.06;4990780;28;20118;-76
2023/04/28 06:38:46;;;;;;;7.40;4.60;;;11.40;99.90;;;10.95;100.00;97375.03;4980492;28;20052;-76
2023/04/28 06:41:13;;;;;;;4.80;2.50;;;11.40;99.90;;;10.71;100.00;97382.25;4989556;28;20120;-76
2023/04/28 06:43:40;;;;;;;9.50;3.97;;;11.40;99.90;;;10.59;100.00;97394.03;4967273;28;20130;-76
2023/04/28 06:46:07;;;;;;;6.55;4.53;;;11.20;99.90;;;10.60;100.00;97393.09;4992041;28;20058;-77
2023/04/28 06:48:34;;;;;;;2.80;2.30;;;11.20;99.90;;;10.70;100.00;97391.78;4994311;28;20426;-76
2023/04/28 06:51:02;;;;;;;3.90;3.10;;;11.20;99.90;;;10.58;100.00;97389.72;4987684;28;20149;-76
2023/04/28 06:53:29;;;;;;;2.63;2.38;;;11.20;99.90;;;10.72;100.00;97391.69;4985987;28;20121;-77
2023/04/28 06:55:56;;;;;;;2.13;1.80;;;11.20;99.90;;;10.79;100.00;97382.75;4989340;28;20105;-76
2023/04/28 06:58:24;;;;;;;3.50;2.45;;;11.20;99.90;;;10.91;100.00;97378.72;4993786;28;20488;-76
2023/04/28 07:00:51;;;;;;;3.33;2.33;;;11.20;99.90;;;11.05;100.00;97386.69;5002055;28;20050;-76
2023/04/28 07:03:18;;;;;;;3.17;1.30;;;11.30;99.90;;;11.28;100.00;97380.38;4993436;28;20504;-77
2023/04/28 07:05:46;;;;;;;3.00;2.20;;;11.40;99.90;;;11.27;100.00;97376.13;4990945;28;20149;-76
2023/04/28 07:08:13;;;;;;;3.40;1.77;;;11.50;99.90;;;11.36;100.00;97377.41;4980491;28;20057;-76
2023/04/28 07:10:40;;;;;;;2.53;1.40;;;11.60;99.90;;;11.42;100.00;97369.31;4983163;28;20050;-76
2023/04/28 07:13:07;;;;;;;4.50;3.10;;;11.50;99.90;;;11.37;100.00;97358.31;4997374;28;20569;-76
2023/04/28 07:15:35;;;;;;;2.75;2.30;;;11.60;99.90;;;11.22;100.00;97354.69;4988106;28;20042;-76
2023/04/28 07:18:02;;;;;;;3.95;2.83;;;11.50;99.90;;;11.29;100.00;97349.16;4984576;28;20085;-77
2023/04/28 07:20:29;;;;;;;2.60;1.90;;;11.60;99.90;;;11.43;100.00;97353.66;4983297;28;20117;-76
2023/04/28 07:22:56;;;;;;;1.67;1.00;;;11.70;99.90;;;11.54;100.00;97352.28;4980352;28;20058;-76
2023/04/28 07:25:24;;;;;;;4.60;0.90;;;11.80;99.90;;;11.64;100.00;97356.94;4986224;28;20571;-77
2023/04/28 07:27:53;;;;;;;1.60;0.80;;;11.90;99.90;;;11.70;100.00;97355.81;4985262;28;20054;-75
2023/04/28 07:30:20;;;;;;;3.70;0.90;;;12.00;99.90;;;11.78;100.00;97352.81;4973838;28;20057;-75
2023/04/28 07:32:54;;;;;;;1.65;1.13;;;12.10;99.90;;;11.84;100.00;97361.13;4985348;28;20484;-76
2023/04/28 07:35:21;;;;;;;3.55;0.77;;;12.10;99.90;;;11.81;100.00;97361.28;4989375;28;20233;-75
2023/04/28 07:37:48;;;;;;;2.67;0.98;;;12.10;99.90;;;11.89;100.00;97360.94;4981604;28;20142;-76
2023/04/28 07:40:16;;;;;;;2.63;0.95;;;12.20;99.90;;;11.87;100.00;97363.59;4975433;28;20047;-75
2023/04/28 07:42:44;;;;;;;3.38;1.38;;;12.20;99.90;;;11.98;100.00;97357.84;4992871;28;20108;-77
2023/04/28 07:45:13;;;;;;;1.67;0.95;;;12.30;99.90;;;12.06;100.00;97350.47;4990775;28;20122;-76
2023/04/28 07:47:41;;;;;;;3.22;1.20;;;12.30;99.90;;;12.12;100.00;97344.97;4995715;28;20050;-75
2023/04/28 07:50:11;;;;;;;1.20;0.93;;;12.30;99.90;;;12.06;100.00;97334.88;4971405;28;20660;-76
2023/04/28 07:52:39;;;;;;;2.47;1.10;;;12.40;99.90;;;12.20;100.00;97343.72;4979896;28;20068;-75
2023/04/28 07:55:06;;;;;;;1.40;0.95;;;12.40;99.90;;;12.12;100.00;97352.75;4991249;28;20449;-76
2023/04/28 07:57:34;;;;;;;1.40;0.90;;;12.50;99.90;;;12.33;100.00;97361.19;4994250;28;20162;-76
2023/04/28 08:00:02;;;;;;;2.22;1.80;;;12.50;99.90;;;12.40;100.00;97377.34;4985643;28;20128;-75
2023/04/28 08:02:30;;;;;;;1.70;1.20;;;12.60;99.90;;;12.50;100.00;97380.31;4989603;28;20502;-76
2023/04/28 08:04:57;;;;;;;2.35;1.50;;;12.70;99.90;;;12.42;100.00;97387.66;4987550;28;20057;-76
2023/04/28 08:07:25;;;;;;;3.58;2.63;;;12.60;99.90;;;12.35;100.00;97387.97;4984394;28;20101;-76
2023/04/28 08:09:52;;;;;;;2.63;2.17;;;12.60;99.90;;;12.47;100.00;97367.44;4980707;28;20495;-76
2023/04/28 08:12:20;;;;;;;3.67;3.22;;;12.70;99.90;;;12.53;100.00;97377.53;4985700;28;20057;-76
2023/04/28 08:14:47;;;;;;;5.10;3.67;;;12.80;99.90;;;12.56;100.00;97375.59;4994811;28;20046;-77
2023/04/28 08:17:16;;;;;;;5.40;4.40;;;12.80;99.90;;;12.68;100.00;97360.22;4990597;28;20090;-76
2023/04/28 08:19:45;;;;;;;5.13;4.20;;;12.90;99.90;;;12.73;100.00;97372.09;4989965;28;20586;-76
2023/04/28 08:22:12;;;;;;;6.20;4.45;;;13.00;99.90;;;12.71;100.00;97367.88;4990929;28;20042;-76
2023/04/28 08:24:39;;;;;;;5.47;4.78;;;13.00;99.90;;;12.82;100.00;97365.53;5002255;28;20050;-77
2023/04/28 08:27:08;;;;;;;7.10;5.90;;;13.00;99.90;;;12.90;100.00;97367.72;4988420;28;20439;-77
2023/04/28 08:29:35;;;;;;;7.63;3.90;;;13.10;99.90;;;12.98;100.00;97366.38;4965778;28;20049;-77
2023/04/28 08:32:03;;;;;;;5.70;5.18;;;13.20;99.90;;;12.90;100.00;97378.97;4990953;28;20588;-76
2023/04/28 08:34:31;;;;;;;5.40;4.85;;;13.20;99.90;;;13.08;100.00;97371.88;4971522;28;20533;-77
2023/04/28 08:36:59;;;;;;;4.15;3.63;;;13.30;99.90;;;13.23;100.00;97370.22;4992066;28;20092;-77
2023/04/28 08:39:26;;;;;;;5.82;4.00;;;13.30;99.90;;;13.24;100.00;97365.81;4977943;28;20057;-77
2023/04/28 08:41:53;;;;;;;4.82;4.32;;;13.40;99.90;;;13.41;100.00;97363.13;4995903;28;20449;-78
2023/04/28 08:44:22;;;;;;;5.60;4.22;;;13.50;99.90;;;13.50;100.00;97369.56;4990305;28;20125;-79
2023/04/28 08:46:56;;;;;;;4.80;3.00;;;13.60;99.90;;;13.56;100.00;97375.28;4988544;28;20057;-77
2023/04/28 08:49:35;;;;;;;4.40;3.28;;;13.70;99.90;;;13.60;100.00;97376.78;4990640;28;20121;-79
2023/04/28 08:52:11;;;;;;;6.68;3.40;;;13.70;99.90;;;13.65;100.00;97375.69;4989187;28;20526;-78
2023/04/28 08:54:40;;;;;;;4.53;3.40;;;13.80;99.90;;;13.86;100.00;97379.63;4990182;28;20050;-78
2023/04/28 08:57:09;;;;;;;4.50;3.78;;;13.90;99.90;;;13.86;100.00;97386.63;4995702;28;20412;-78
2023/04/28 08:59:40;;;;;;;3.67;2.65;;;14.00;99.90;;;14.10;100.00;97398.22;4970130;28;20050;-78
2023/04/28 09:02:08;;;;;;;4.32;3.33;;;14.10;99.90;;;14.01;100.00;97393.56;4982815;28;20097;-79
2023/04/28 09:04:36;;;;;;;3.70;2.78;;;14.10;99.90;;;14.07;100.00;97385.38;4991617;28;20053;-79
2023/04/28 09:07:10;;;;;;;3.58;2.60;;;14.10;99.90;;;14.07;100.00;97403.63;4976917;28;20562;-79
2023/04/28 09:09:39;;;;;;;2.90;2.17;;;14.10;99.90;;;14.09;100.00;97401.75;4970322;28;20049;-79
2023/04/28 09:12:06;;;;;;;2.58;1.80;;;14.00;99.90;;;14.18;100.00;97395.97;4988701;28;20055;-78
2023/04/28 09:14:36;;;;;;;4.15;2.80;;;14.20;99.90;;;14.17;100.00;97399.53;4987105;28;20050;-79
2023/04/28 09:17:12;;;;;;;2.40;1.50;;;14.30;99.90;;;14.20;100.00;97404.56;4967712;28;20442;-79
2023/04/28 09:19:43;;;;;;;4.18;2.30;;;14.30;99.90;;;14.11;100.00;97399.88;4985071;28;20453;-77
2023/04/28 09:22:10;;;;;;;2.45;1.80;;;14.30;99.90;;;14.09;100.00;97412.19;4993881;28;20053;-78
2023/04/28 09:24:53;;;;;;;5.00;1.50;;;14.30;99.90;;;14.12;100.00;97400.75;4993904;28;20041;-77
2023/04/28 09:27:28;;;;;;;3.08;1.30;;;14.20;99.90;;;14.16;100.00;97410.91;5000286;28;20058;-77
2023/04/28 09:29:55;;;;;;;2.22;1.45;;;14.20;99.90;;;14.23;100.00;97395.69;4994741;28;20050;-77
2023/04/28 09:32:23;;;;;;;7.60;2.55;;;14.20;99.90;;;14.18;100.00;97398.59;4997219;28;20133;-77
2023/04/28 09:34:55;;;;;;;3.50;1.80;;;14.40;99.90;;;14.15;100.00;97409.22;4989641;28;20511;-77
2023/04/28 09:37:26;;;;;;;3.90;2.08;;;14.40;99.90;;;14.20;100.00;97412.38;4998861;28;20062;-77
2023/04/28 09:39:54;;;;;;;3.35;1.80;;;14.40;99.90;;;14.13;100.00;97412.84;4975361;28;20042;-75
2023/04/28 09:42:46;;;;;;;2.58;1.50;;;14.40;99.90;;;14.10;100.00;97418.25;4995450;28;20046;-77
2023/04/28 09:45:15;;;;;;;3.85;1.90;;;14.30;99.90;;;13.99;100.00;97421.50;4994488;28;20054;-76
2023/04/28 09:47:45;;;;;;;3.20;1.50;;;14.30;99.90;;;13.95;100.00;97423.44;4986685;28;20050;-76
2023/04/28 09:50:15;;;;;;;2.60;1.10;;;14.20;99.90;;;13.83;100.00;97411.13;4997848;28;20169;-76
2023/04/28 09:52:56;;;;;;;2.33;1.05;;;14.10;99.90;;;13.85;100.00;97424.09;4996210;28;20081;-76
2023/04/28 09:55:23;;;;;;;4.25;0.80;;;14.10;99.90;;;13.88;100.00;97422.13;4993527;28;20474;-76
2023/04/28 09:57:54;;;;;;;1.55;0.60;;;14.10;99.90;;;14.02;100.00;97426.53;4998471;28;20050;-76
2023/04/28 10:00:22;;;;;;;1.30;0.70;;;14.10;99.90;;;13.90;100.00;97422.03;4990764;28;20057;-76
2023/04/28 10:02:50;;;;;;;2.83;0.90;;;14.20;99.90;;;14.06;100.00;97421.97;4992657;28;20129;-76
2023/04/28 10:05:18;;;;;;;2.08;0.80;;;14.20;99.90;;;14.16;100.00;97423.97;5000945;28;20598;-76
2023/04/28 10:07:46;;;;;;;0.85;0.60;;;14.30;99.90;;;14.21;100.00;97421.91;4986424;28;20525;-75
2023/04/28 10:10:14;;;;;;;1.90;0.50;;;14.40;99.90;;;14.48;100.00;97417.72;4990553;28;20160;-76
2023/04/28 10:12:42;;;;;;;2.22;0.52;;;14.40;99.90;;;14.52;100.00;97422.66;4991941;28;20074;-76
2023/04/28 10:15:12;;;;;;;1.83;0.52;;;14.50;99.90;;;14.69;100.00;97419.06;4996650;28;20074;-76
2023/04/28 10:17:39;;;;;;;0.90;0.52;;;14.70;99.90;;;14.62;100.00;97408.16;4988723;28;20087;-76